createdAt,value
2022-09-07T00:03:21.937Z,101860.53
2022-09-07T00:06:45.832Z,101855.06
2022-09-07T00:10:09.917Z,101853.56
2022-09-07T00:13:33.871Z,101850.63
2022-09-07T00:16:57.925Z,101856.59
2022-09-07T00:20:22.841Z,101849.59
2022-09-07T00:23:41.896Z,101840.13
2022-09-07T00:27:05.844Z,101844.50
2022-09-07T00:30:29.877Z,101842.91
2022-09-07T00:33:53.861Z,101841.78
2022-09-07T00:37:17.886Z,101829.09
2022-09-07T00:40:41.848Z,101832.53
2022-09-07T00:44:09.889Z,101817.97
2022-09-07T00:47:40.932Z,101821.50
2022-09-07T00:51:10.850Z,101818.06
2022-09-07T00:54:44.868Z,101809.41
2022-09-07T00:58:09.978Z,101808.88
2022-09-07T01:01:35.031Z,101798.94
2022-09-07T01:05:00.953Z,101798.53
2022-09-07T01:08:25.857Z,101799.06
2022-09-07T01:11:51.912Z,101785.53
2022-09-07T01:15:15.885Z,101775.53
2022-09-07T01:18:55.886Z,101788.78
2022-09-07T01:22:56.899Z,101794.56
2022-09-07T01:26:46.926Z,101785.56
2022-09-07T01:30:19.897Z,101779.50
2022-09-07T01:33:53.800Z,101777.25
2022-09-07T01:37:30.897Z,101773.38
2022-09-07T01:40:59.911Z,101774.03
2022-09-07T01:44:29.942Z,101776.84
2022-09-07T01:47:58.928Z,101765.53
2022-09-07T01:51:22.924Z,101753.03
2022-09-07T01:54:54.913Z,101754.53
2022-09-07T01:58:38.950Z,101754.63
2022-09-07T02:02:08.956Z,101768.63
2022-09-07T02:05:35.951Z,101758.78
2022-09-07T02:09:19.874Z,101757.47
2022-09-07T02:12:52.948Z,101759.28
2022-09-07T02:16:22.948Z,101752.13
2022-09-07T02:19:51.921Z,101762.78
2022-09-07T02:23:19.914Z,101766.06
2022-09-07T02:26:43.952Z,101761.25
2022-09-07T02:30:07.946Z,101761.91
2022-09-07T02:33:31.913Z,101766.94
2022-09-07T02:36:59.957Z,101758.97
2022-09-07T02:40:25.909Z,101790.13
2022-09-07T02:43:50.921Z,101774.19
2022-09-07T02:47:20.982Z,101767.59
2022-09-07T02:51:11.895Z,101774.97
2022-09-07T02:55:01.927Z,101766.72
2022-09-07T02:58:35.891Z,101767.03
2022-09-07T03:02:35.025Z,101776.56
2022-09-07T03:06:14.962Z,101760.31
2022-09-07T03:09:42.979Z,101755.75
2022-09-07T03:13:08.013Z,101764.19
2022-09-07T03:16:32.116Z,101755.25
2022-09-07T03:19:54.923Z,101750.56
2022-09-07T03:23:18.976Z,101761.44
2022-09-07T03:26:36.501Z,101760.38
2022-09-07T03:29:54.983Z,101758.25
2022-09-07T03:33:18.965Z,101759.72
2022-09-07T03:36:43.977Z,101761.63
2022-09-07T03:40:07.040Z,101759.59
2022-09-07T03:43:30.994Z,101762.09
2022-09-07T03:46:56.006Z,101763.69
2022-09-07T03:50:21.000Z,101763.72
2022-09-07T03:53:49.935Z,101759.16
2022-09-07T03:57:13.953Z,101763.44
2022-09-07T04:00:36.971Z,101765.41
2022-09-07T04:04:02.492Z,101760.13
2022-09-07T04:07:26.982Z,101760.47
2022-09-07T04:10:55.018Z,101759.31
2022-09-07T04:14:18.930Z,101764.69
2022-09-07T04:17:41.978Z,101770.94
2022-09-07T04:21:05.992Z,101770.22
2022-09-07T04:24:30.976Z,101775.69
2022-09-07T04:27:48.520Z,101767.22
2022-09-07T04:31:11.050Z,101765.00
2022-09-07T04:34:35.952Z,101773.44
2022-09-07T04:38:00.033Z,101776.28
2022-09-07T04:41:30.007Z,101776.19
2022-09-07T04:44:53.992Z,101769.44
2022-09-07T04:48:18.010Z,101772.19
2022-09-07T04:51:43.983Z,101780.66
2022-09-07T04:55:08.026Z,101776.16
2022-09-07T04:58:31.091Z,101775.00
2022-09-07T05:01:55.039Z,101786.31
2022-09-07T05:05:20.001Z,101783.84
2022-09-07T05:08:44.017Z,101789.59
2022-09-07T05:12:07.986Z,101786.06
2022-09-07T05:15:30.986Z,101791.13
2022-09-07T05:18:55.979Z,101794.88
2022-09-07T05:22:19.946Z,101799.84
2022-09-07T05:25:44.982Z,101792.66
2022-09-07T05:32:55.950Z,101802.81
2022-09-07T05:36:21.024Z,101812.03
2022-09-07T05:39:46.003Z,101808.03
2022-09-07T05:43:10.044Z,101810.06
2022-09-07T05:46:35.042Z,101824.72
2022-09-07T05:49:58.966Z,101829.22
2022-09-07T05:53:23.001Z,101833.56
2022-09-07T05:56:49.977Z,101834.91
2022-09-07T06:00:13.999Z,101834.25
2022-09-07T06:03:37.983Z,101835.81
2022-09-07T06:10:48.011Z,101842.50
2022-09-07T06:14:12.012Z,101844.34
2022-09-07T06:17:35.066Z,101849.72
2022-09-07T06:20:51.998Z,101855.25
2022-09-07T06:24:16.032Z,101855.88
2022-09-07T06:27:40.056Z,101855.06
2022-09-07T06:30:58.743Z,101855.50
2022-09-07T06:34:17.078Z,101859.19
2022-09-07T06:37:40.988Z,101862.41
2022-09-07T06:44:50.034Z,101876.75
2022-09-07T06:48:15.022Z,101875.25
2022-09-07T06:51:40.057Z,101876.69
2022-09-07T06:55:05.013Z,101880.53
2022-09-07T06:58:29.111Z,101887.88
2022-09-07T07:01:53.042Z,101889.00
2022-09-07T07:05:17.999Z,101894.00
2022-09-07T07:08:42.029Z,101888.97
2022-09-07T07:12:07.054Z,101895.56
2022-09-07T07:15:32.095Z,101900.88
2022-09-07T07:19:00.069Z,101908.28
2022-09-07T07:22:46.188Z,101912.47
2022-09-07T07:26:07.060Z,101914.50
2022-09-07T07:29:31.087Z,101912.84
2022-09-07T07:32:56.138Z,101912.53
2022-09-07T07:36:40.009Z,101914.34
2022-09-07T07:40:20.459Z,101916.34
2022-09-07T07:43:46.999Z,101918.91
2022-09-07T07:47:11.026Z,101920.38
2022-09-07T07:50:35.112Z,101926.22
2022-09-07T07:53:58.433Z,101932.97
2022-09-07T07:57:27.104Z,101932.28
2022-09-07T08:00:55.419Z,101930.91
2022-09-07T08:04:21.015Z,101925.56
2022-09-07T08:07:45.087Z,101932.13
2022-09-07T08:11:10.044Z,101940.22
2022-09-07T08:14:34.026Z,101933.34
2022-09-07T08:17:57.971Z,101939.28
2022-09-07T08:21:27.023Z,101949.53
2022-09-07T08:24:52.012Z,101946.44
2022-09-07T08:28:16.071Z,101946.72
2022-09-07T08:31:34.725Z,101949.31
2022-09-07T08:34:52.060Z,101947.75
2022-09-07T08:38:19.145Z,101945.28
2022-09-07T08:42:06.067Z,101950.91
2022-09-07T08:45:49.053Z,101953.28
2022-09-07T08:49:14.020Z,101956.84
2022-09-07T08:52:39.050Z,101963.97
2022-09-07T08:56:10.025Z,101964.81
2022-09-07T08:59:58.079Z,101958.66
2022-09-07T09:04:15.118Z,101969.22
2022-09-07T09:07:19.057Z,101977.38
2022-09-07T09:11:03.013Z,101981.09
2022-09-07T09:14:46.050Z,101979.25
2022-09-07T09:18:38.063Z,101989.63
2022-09-07T09:22:02.071Z,101996.13
2022-09-07T09:25:43.051Z,101995.09
2022-09-07T09:29:07.051Z,102000.28
2022-09-07T09:32:56.079Z,102002.44
2022-09-07T09:36:40.060Z,102005.19
2022-09-07T09:40:15.134Z,102006.00
2022-09-07T09:44:06.097Z,102010.97
2022-09-07T09:47:46.124Z,102020.91
2022-09-07T09:54:50.085Z,102022.53
2022-09-07T10:05:46.063Z,102025.41
2022-09-07T10:09:18.096Z,102028.28
2022-09-07T10:12:46.059Z,102034.44
2022-09-07T10:16:12.142Z,102039.16
2022-09-07T10:19:52.580Z,102040.75
2022-09-07T10:23:17.150Z,102037.03
2022-09-07T10:26:43.102Z,102045.50
2022-09-07T10:30:06.985Z,102049.69
2022-09-07T10:38:25.246Z,102056.09
2022-09-07T10:42:08.123Z,102053.59
2022-09-07T10:45:35.083Z,102047.03
2022-09-07T10:49:09.073Z,102056.88
2022-09-07T10:52:54.083Z,102052.81
2022-09-07T10:56:47.123Z,102062.19
2022-09-07T11:00:21.082Z,102056.56
2022-09-07T11:04:17.065Z,102054.03
2022-09-07T11:07:44.098Z,102057.13
2022-09-07T11:12:00.799Z,102055.06
2022-09-07T11:15:18.131Z,102064.59
2022-09-07T11:18:48.087Z,102067.28
2022-09-07T11:22:19.134Z,102066.91
2022-09-07T11:26:05.129Z,102069.84
2022-09-07T11:29:33.059Z,102064.69
2022-09-07T11:33:06.059Z,102069.69
2022-09-07T11:36:24.647Z,102070.47
2022-09-07T11:39:56.259Z,102066.78
2022-09-07T11:43:35.103Z,102063.69
2022-09-07T11:47:02.104Z,102072.13
2022-09-07T11:50:34.134Z,102058.44
2022-09-07T11:54:04.117Z,102060.47
2022-09-07T11:57:54.930Z,102067.56
2022-09-07T12:01:35.102Z,102068.47
2022-09-07T12:05:20.104Z,102063.25
2022-09-07T12:09:24.149Z,102065.28
2022-09-07T12:13:07.129Z,102070.00
2022-09-07T12:16:36.142Z,102076.41
2022-09-07T12:20:02.121Z,102078.09
2022-09-07T12:23:32.105Z,102081.09
2022-09-07T12:26:56.121Z,102088.84
2022-09-07T12:30:20.142Z,102093.13
2022-09-07T12:33:51.124Z,102093.47
2022-09-07T12:37:35.106Z,102099.69
2022-09-07T12:41:06.130Z,102098.97
2022-09-07T12:44:38.157Z,102102.38
2022-09-07T12:48:12.085Z,102108.94
2022-09-07T12:59:55.225Z,102108.41
2022-09-07T13:03:54.091Z,102116.47
2022-09-07T13:07:40.161Z,102120.22
2022-09-07T13:11:05.120Z,102119.25
2022-09-07T13:14:23.251Z,102122.03
2022-09-07T13:17:52.105Z,102122.38
2022-09-07T13:21:25.174Z,102118.31
2022-09-07T13:25:05.109Z,102121.88
2022-09-07T13:28:36.176Z,102126.41
2022-09-07T13:33:07.953Z,102127.19
2022-09-07T13:36:13.157Z,102128.91
2022-09-07T13:39:37.170Z,102123.00
2022-09-07T13:43:01.191Z,102132.78
2022-09-07T13:47:02.141Z,102127.31
2022-09-07T13:50:56.142Z,102126.47
2022-09-07T13:54:41.138Z,102126.47
2022-09-07T13:58:05.135Z,102125.97
2022-09-07T14:01:29.213Z,102129.34
2022-09-07T14:04:58.194Z,102128.91
2022-09-07T14:08:39.801Z,102126.88
2022-09-07T14:12:05.155Z,102128.13
2022-09-07T14:15:53.104Z,102120.38
2022-09-07T14:19:25.176Z,102120.84
2022-09-07T14:22:53.390Z,102123.56
2022-09-07T14:26:37.186Z,102120.72
2022-09-07T14:30:00.186Z,102131.41
2022-09-07T14:33:29.421Z,102117.75
2022-09-07T14:36:55.171Z,102119.31
2022-09-07T14:40:20.242Z,102118.66
2022-09-07T14:43:52.174Z,102118.38
2022-09-07T14:47:30.202Z,102111.81
2022-09-07T14:51:13.071Z,102111.59
2022-09-07T14:54:46.259Z,102115.81
2022-09-07T14:58:35.165Z,102120.97
2022-09-07T15:02:00.231Z,102112.44
2022-09-07T15:05:31.126Z,102126.13
2022-09-07T15:09:01.167Z,102123.22
2022-09-07T15:12:38.669Z,102122.84
2022-09-07T15:16:05.197Z,102123.22
2022-09-07T15:19:32.158Z,102123.97
2022-09-07T15:22:55.208Z,102125.34
2022-09-07T15:30:03.189Z,102120.19
2022-09-07T15:33:27.159Z,102121.91
2022-09-07T15:36:52.462Z,102120.38
2022-09-07T15:40:16.250Z,102119.81
2022-09-07T15:43:37.446Z,102121.53
2022-09-07T15:50:41.944Z,102125.81
2022-09-07T15:54:11.570Z,102123.34
2022-09-07T15:57:59.435Z,102130.34
2022-09-07T16:05:04.260Z,102136.47
2022-09-07T16:08:32.829Z,102132.78
2022-09-07T16:12:59.867Z,102141.94
2022-09-07T16:15:45.182Z,102141.81
2022-09-07T16:19:09.235Z,102146.59
2022-09-07T16:26:17.187Z,102162.75
2022-09-07T16:29:41.230Z,102164.81
2022-09-07T16:33:06.347Z,102181.78
2022-09-07T16:36:33.157Z,102176.34
2022-09-07T16:40:00.398Z,102177.84
2022-09-07T16:43:24.159Z,102182.34
2022-09-07T16:46:48.231Z,102191.69
2022-09-07T16:50:12.154Z,102199.69
2022-09-07T16:53:37.244Z,102195.41
2022-09-07T16:57:02.202Z,102200.09
2022-09-07T17:00:26.190Z,102203.75
2022-09-07T17:03:51.261Z,102213.06
2022-09-07T17:07:15.214Z,102215.69
2022-09-07T17:10:39.197Z,102220.19
2022-09-07T17:14:03.219Z,102227.69
2022-09-07T17:17:28.234Z,102230.91
2022-09-07T17:20:51.219Z,102232.41
2022-09-07T17:24:15.232Z,102239.25
2022-09-07T17:27:40.498Z,102243.88
2022-09-07T17:31:05.275Z,102252.97
2022-09-07T17:34:28.180Z,102254.13
2022-09-07T17:37:52.314Z,102260.53
2022-09-07T17:41:29.179Z,102259.22
2022-09-07T17:44:53.263Z,102260.91
2022-09-07T17:48:17.205Z,102271.75
2022-09-07T17:51:42.200Z,102276.59
2022-09-07T17:55:06.206Z,102271.41
2022-09-07T17:58:30.240Z,102273.53
2022-09-07T18:01:54.363Z,102273.81
2022-09-07T18:05:19.230Z,102290.97
2022-09-07T18:08:43.221Z,102290.41
2022-09-07T18:12:06.242Z,102299.53
2022-09-07T18:15:30.212Z,102292.91
2022-09-07T18:18:54.272Z,102302.78
2022-09-07T18:22:18.194Z,102306.88
2022-09-07T18:25:44.224Z,102314.50
2022-09-07T18:29:27.343Z,102318.00
2022-09-07T18:32:52.242Z,102322.03
2022-09-07T18:36:18.184Z,102323.31
2022-09-07T18:39:43.288Z,102334.06
2022-09-07T18:43:09.211Z,102340.00
2022-09-07T18:46:36.331Z,102343.97
2022-09-07T18:50:01.206Z,102340.94
2022-09-07T18:53:25.234Z,102342.91
2022-09-07T18:56:49.214Z,102346.78
2022-09-07T19:00:14.236Z,102349.16
2022-09-07T19:03:38.253Z,102355.25
2022-09-07T19:07:03.272Z,102360.63
2022-09-07T19:10:27.255Z,102360.81
2022-09-07T19:13:52.229Z,102360.19
2022-09-07T19:17:19.204Z,102355.47
2022-09-07T19:20:43.279Z,102359.00
2022-09-07T19:24:12.257Z,102358.16
2022-09-07T19:27:36.282Z,102362.09
2022-09-07T19:31:00.263Z,102369.22
2022-09-07T19:34:25.266Z,102374.38
2022-09-07T19:37:58.253Z,102393.09
2022-09-07T19:41:25.246Z,102389.38
2022-09-07T19:44:49.281Z,102394.47
2022-09-07T19:48:14.334Z,102393.31
2022-09-07T19:51:39.217Z,102393.13
2022-09-07T19:55:05.302Z,102401.34
2022-09-07T19:58:29.213Z,102410.50
2022-09-07T20:01:56.253Z,102409.78
2022-09-07T20:05:22.221Z,102418.66
2022-09-07T20:08:47.295Z,102431.16
2022-09-07T20:12:12.259Z,102430.63
2022-09-07T20:15:37.269Z,102432.69
2022-09-07T20:19:01.293Z,102444.47
2022-09-07T20:22:25.231Z,102436.53
2022-09-07T20:25:49.292Z,102450.78
2022-09-07T20:29:27.384Z,102452.13
2022-09-07T20:32:52.240Z,102444.63
2022-09-07T20:36:21.231Z,102446.72
2022-09-07T20:39:45.303Z,102445.81
2022-09-07T20:43:10.419Z,102448.56
2022-09-07T20:46:28.867Z,102451.38
2022-09-07T20:49:47.308Z,102449.38
2022-09-07T20:53:12.274Z,102451.13
2022-09-07T20:56:41.317Z,102453.38
2022-09-07T21:00:05.295Z,102449.22
2022-09-07T21:03:29.360Z,102449.63
2022-09-07T21:06:53.297Z,102453.69
2022-09-07T21:10:17.283Z,102455.94
2022-09-07T21:13:41.297Z,102456.81
2022-09-07T21:17:05.318Z,102456.03
2022-09-07T21:20:30.299Z,102464.16
2022-09-07T21:23:54.279Z,102462.53
2022-09-07T21:27:18.264Z,102455.16
2022-09-07T21:30:42.317Z,102467.31
2022-09-07T21:34:10.291Z,102465.66
2022-09-07T21:37:35.308Z,102468.31
2022-09-07T21:40:59.340Z,102464.34
2022-09-07T21:44:23.251Z,102467.28
2022-09-07T21:47:47.280Z,102465.34
2022-09-07T21:51:12.256Z,102467.22
2022-09-07T21:54:28.294Z,102471.59
2022-09-07T21:57:52.296Z,102469.72
2022-09-07T22:01:27.373Z,102462.63
2022-09-07T22:04:52.322Z,102465.53
2022-09-07T22:08:16.269Z,102463.81
2022-09-07T22:11:44.156Z,102464.81
2022-09-07T22:15:11.316Z,102460.81
2022-09-07T22:18:38.364Z,102457.66
2022-09-07T22:22:02.278Z,102450.22
2022-09-07T22:25:25.324Z,102457.53
2022-09-07T22:28:49.322Z,102467.34
2022-09-07T22:32:12.316Z,102460.31
2022-09-07T22:35:38.282Z,102467.81
2022-09-07T22:39:04.331Z,102466.66
2022-09-07T22:42:29.327Z,102465.66
2022-09-07T22:45:53.321Z,102459.50
2022-09-07T22:49:11.587Z,102452.91
2022-09-07T22:52:28.330Z,102458.50
2022-09-07T22:55:54.317Z,102453.56
2022-09-07T22:59:22.356Z,102441.72
2022-09-07T23:02:46.351Z,102437.97
2022-09-07T23:06:10.327Z,102440.41
2022-09-07T23:09:34.314Z,102447.03
2022-09-07T23:12:58.299Z,102432.66
2022-09-07T23:16:22.444Z,102436.75
2022-09-07T23:19:46.334Z,102443.22
2022-09-07T23:23:10.373Z,102437.19
2022-09-07T23:26:35.287Z,102444.06
2022-09-07T23:29:59.480Z,102444.06
2022-09-07T23:33:23.347Z,102434.94
2022-09-07T23:36:47.384Z,102437.63
2022-09-07T23:40:11.415Z,102424.59
2022-09-07T23:43:38.410Z,102428.19
2022-09-07T23:47:02.360Z,102431.03
2022-09-07T23:50:26.393Z,102427.97
2022-09-07T23:53:50.353Z,102421.19
2022-09-07T23:57:15.396Z,102417.84
